Portada
METAR-TAF:

METAR-TAF

Aeropuertos :

Aeropuerto Internacional Mitiga

Trípoli, Libia

latitud: 32-54N, longitud: 13-17E, altitud: 11 m

METAR: falta

Hora: 03:13 (01:13 UTC)

Pronóstico

El informe se hizo hace 14 horas y 13 minutos, a las 11:00 UTC
Pronóstico válido del 16 a las 12 UTC al 17 a las 12 UTC
Viento 2 kt con dirección variable
Visibilidad 10 km o más
sin nubes por debajo de 1500 m y sin presencia de cumulonimbus.
Evolucionando progresivamente
del 16 a las 22 UTC al 16 a las 24 UTC
Viento 12 kt del oeste-suroeste
Visibilidad: 8000 m
Escasas nubes a una altura de 3000 ft
Nubes dispersas a una altura de 8000 ft

TAF: HLLM 161100Z 1612/1712 VRB02KT CAVOK BECMG 1622/1624 24012KT 8000 FEW030 SCT080

Observaciones y pronósticos meteorológicos de más de 4000 aeropuertos (mensajes METAR y TAF).

Los puntos amarillos y rojos representan las estaciones disponibles.

Ponga el ratón en el punto deseado para ver el nombre de la estación.

Haga clic para ver las observaciones y los pronósticos meteorológicos.

Para cambiar el mapa : haga clic en los botones verdes con una cruz de color negro para hacer un zoom, en el botón verde con un guión para alejar o en las flechas verdes para mapas adyacentes.


METAR-TAF: